Time;durP1;ratioP1;P1;durP2;ratioP2;P2;SDS_P1;SDS_P2;PMS_P1;PMS_P2;Temp;Humidity;BMP_temperature;BMP_pressure;BME280_temperature;BME280_humidity;BME280_pressure;Samples;Min_cycle;Max_cycle;Signal;HPM_P1;HPM_P2
2022/06/25 00:01:54;;;;;;;;;;;;;;;22.10;81.13;96785.54;590795;240;68563;-69
2022/06/25 00:07:07;;;;;;;;;;;;;;;22.09;81.13;96775.90;590781;240;69695;-70
2022/06/25 00:09:35;;;;;;;;;;;;;;;22.09;81.19;96779.36;590771;240;68996;-69
2022/06/25 00:14:48;;;;;;;;;;;;;;;22.08;81.25;96774.31;590806;240;68686;-70
2022/06/25 00:17:15;;;;;;;;;;;;;;;22.08;81.29;96777.78;590844;240;66522;-69
2022/06/25 00:19:43;;;;;;;;;;;;;;;22.08;81.32;96772.43;590749;240;62889;-70
2022/06/25 00:22:10;;;;;;;;;;;;;;;22.08;81.36;96775.11;590760;240;66492;-70
2022/06/25 00:24:38;;;;;;;;;;;;;;;22.08;81.32;96768.96;590727;240;66435;-69
2022/06/25 00:27:06;;;;;;;;;;;;;;;22.08;81.31;96768.96;590780;240;62812;-70
2022/06/25 00:29:33;;;;;;;;;;;;;;;22.08;81.32;96766.28;590788;240;66352;-70
2022/06/25 00:32:01;;;;;;;;;;;;;;;22.08;81.25;96769.75;590779;240;66445;-70
2022/06/25 00:34:28;;;;;;;;;;;;;;;22.08;81.21;96760.94;590835;240;62708;-70
2022/06/25 00:36:56;;;;;;;;;;;;;;;22.08;81.20;96766.28;590825;240;68658;-70
2022/06/25 00:39:24;;;;;;;;;;;;;;;22.09;81.17;96759.84;590861;240;68355;-70
2022/06/25 00:41:51;;;;;;;;;;;;;;;22.08;81.17;96760.94;590891;240;64924;-70
2022/06/25 00:44:19;;;;;;;;;;;;;;;22.08;81.13;96751.02;590838;240;68807;-69
2022/06/25 00:46:47;;;;;;;;;;;;;;;22.08;81.16;96752.91;590830;240;66824;-70
2022/06/25 00:49:15;;;;;;;;;;;;;;;22.08;81.22;96745.67;590824;240;65055;-70
2022/06/25 00:51:44;;;;;;;;;;;;;;;22.08;81.25;96740.31;590825;240;68970;-70
2022/06/25 00:54:12;;;;;;;;;;;;;;;22.07;81.28;96744.09;588347;240;70216;-70
2022/06/25 00:56:41;;;;;;;;;;;;;;;22.07;81.28;96738.73;587244;241;64889;-70
2022/06/25 00:59:10;;;;;;;;;;;;;;;22.08;81.28;96745.67;587129;241;66469;-70
2022/06/25 01:01:38;;;;;;;;;;;;;;;22.07;81.32;96743.27;587202;241;69268;-70
2022/06/25 01:04:05;;;;;;;;;;;;;;;22.08;81.27;96736.85;587232;241;64886;-70
2022/06/25 01:06:33;;;;;;;;;;;;;;;22.07;81.27;96733.38;587149;241;68539;-70
2022/06/25 01:09:01;;;;;;;;;;;;;;;22.07;81.32;96735.23;587254;241;68590;-69
2022/06/25 01:11:29;;;;;;;;;;;;;;;22.08;81.34;96734.17;587163;241;62752;-70
2022/06/25 01:13:56;;;;;;;;;;;;;;;22.08;81.36;96729.61;587198;241;68874;-70
2022/06/25 01:16:24;;;;;;;;;;;;;;;22.07;81.37;96729.88;587848;241;70323;-70
2022/06/25 01:18:51;;;;;;;;;;;;;;;22.07;81.44;96721.86;587182;241;63698;-70
2022/06/25 01:21:19;;;;;;;;;;;;;;;22.07;81.39;96721.86;587225;241;66430;-70
2022/06/25 01:23:46;;;;;;;;;;;;;;;22.07;81.43;96725.35;587209;241;68587;-70
2022/06/25 01:26:14;;;;;;;;;;;;;;;22.07;81.37;96725.35;587191;241;65038;-70
2022/06/25 01:28:41;;;;;;;;;;;;;;;22.06;81.38;96726.42;587230;241;68690;-70
2022/06/25 01:31:09;;;;;;;;;;;;;;;22.07;81.41;96724.53;587144;241;69001;-70
2022/06/25 01:33:37;;;;;;;;;;;;;;;22.07;81.40;96728.03;587215;241;62762;-70
2022/06/25 01:36:04;;;;;;;;;;;;;;;22.08;81.40;96728.82;587205;241;69000;-70
2022/06/25 01:38:32;;;;;;;;;;;;;;;22.07;81.39;96727.20;587196;241;68655;-73
2022/06/25 01:41:01;;;;;;;;;;;;;;;22.06;81.36;96723.73;587242;241;42523;-74
2022/06/25 01:43:29;;;;;;;;;;;;;;;22.07;81.39;96727.20;587175;241;66475;-73
2022/06/25 01:45:56;;;;;;;;;;;;;;;22.06;81.37;96723.73;587172;241;66458;-73
2022/06/25 01:48:24;;;;;;;;;;;;;;;22.06;81.36;96723.73;587192;241;64925;-73
2022/06/25 01:50:51;;;;;;;;;;;;;;;22.06;81.41;96730.98;587166;241;68689;-74
2022/06/25 01:53:19;;;;;;;;;;;;;;;22.07;81.42;96729.88;587148;241;67992;-73
2022/06/25 01:55:46;;;;;;;;;;;;;;;22.07;81.41;96740.59;587180;241;63643;-73
2022/06/25 01:58:15;;;;;;;;;;;;;;;22.06;81.45;96734.44;587168;241;68875;-73
2022/06/25 02:00:43;;;;;;;;;;;;;;;22.06;81.46;96734.44;587191;241;66476;-74
2022/06/25 02:03:11;;;;;;;;;;;;;;;22.05;81.46;96730.19;587184;241;65140;-74
2022/06/25 02:05:57;;;;;;;;;;;;;;;22.07;81.51;96737.91;587186;241;68187;-74
2022/06/25 02:08:32;;;;;;;;;;;;;;;22.06;81.52;96739.00;587179;241;68403;-75
2022/06/25 02:11:01;;;;;;;;;;;;;;;22.07;81.51;96748.61;587156;241;65411;-75
2022/06/25 02:13:29;;;;;;;;;;;;;;;22.06;81.51;96739.00;587160;241;65794;-74
2022/06/25 02:15:57;;;;;;;;;;;;;;;22.06;81.54;96744.36;587198;241;68496;-74
2022/06/25 02:18:25;;;;;;;;;;;;;;;22.06;81.56;96741.68;587167;241;65211;-74
2022/06/25 02:20:52;;;;;;;;;;;;;;;22.05;81.57;96743.56;587156;241;67165;-75
2022/06/25 02:23:23;;;;;;;;;;;;;;;22.06;81.56;96739.00;587179;241;47436;-75
2022/06/25 02:25:51;;;;;;;;;;;;;;;22.05;81.61;96746.23;587142;241;65634;-74
2022/06/25 02:28:18;;;;;;;;;;;;;;;22.05;81.58;96754.27;587228;241;68945;-75
2022/06/25 02:30:46;;;;;;;;;;;;;;;22.05;81.62;96751.59;587136;241;68519;-74
2022/06/25 02:33:14;;;;;;;;;;;;;;;22.06;81.62;96763.09;587168;241;62761;-75
2022/06/25 02:35:43;;;;;;;;;;;;;;;22.06;81.63;96760.41;587165;241;69246;-74
2022/06/25 02:38:23;;;;;;;;;;;;;;;22.05;81.64;96762.30;587100;241;68960;-74
2022/06/25 02:40:52;;;;;;;;;;;;;;;22.05;81.62;96756.16;587167;241;63679;-73
2022/06/25 02:43:21;;;;;;;;;;;;;;;22.05;81.58;96766.86;587240;241;69149;-73
2022/06/25 02:45:50;;;;;;;;;;;;;;;22.05;81.62;96758.83;587185;241;45914;-73
2022/06/25 02:48:18;;;;;;;;;;;;;;;22.05;81.66;96766.86;587161;241;65479;-74
2022/06/25 02:50:46;;;;;;;;;;;;;;;22.05;81.65;96769.53;587113;241;68661;-74
2022/06/25 02:53:14;;;;;;;;;;;;;;;22.05;81.70;96770.33;587072;241;68821;-74
2022/06/25 03:01:14;;;;;;;;;;;;;;;22.04;81.75;96782.09;587182;241;46817;-74
2022/06/25 03:03:42;;;;;;;;;;;;;;;22.05;81.75;96789.05;587168;241;64960;-74
2022/06/25 03:06:10;;;;;;;;;;;;;;;22.04;81.79;96782.09;587193;241;68601;-75
2022/06/25 03:08:37;;;;;;;;;;;;;;;22.05;81.81;96777.56;587183;241;67862;-74
2022/06/25 03:11:05;;;;;;;;;;;;;;;22.04;81.82;96771.39;587212;241;62782;-75
2022/06/25 03:13:34;;;;;;;;;;;;;;;22.04;81.85;96774.06;587141;241;68375;-75
2022/06/25 03:16:01;;;;;;;;;;;;;;;22.04;81.82;96771.39;587141;241;66703;-74
2022/06/25 03:18:29;;;;;;;;;;;;;;;22.04;81.83;96778.63;587184;241;64990;-75
2022/06/25 03:21:15;;;;;;;;;;;;;;;22.04;81.83;96778.63;587257;241;38978;-73
2022/06/25 03:23:43;;;;;;;;;;;;;;;22.03;81.90;96775.16;587167;241;65850;-73
2022/06/25 03:26:11;;;;;;;;;;;;;;;22.04;81.88;96773.27;587195;241;66606;-73
2022/06/25 03:28:38;;;;;;;;;;;;;;;22.04;81.91;96783.97;587185;241;66198;-73
2022/06/25 03:31:06;;;;;;;;;;;;;;;22.04;81.78;96786.65;587153;241;68417;-73
2022/06/25 03:33:34;;;;;;;;;;;;;;;22.04;81.83;96783.97;587168;241;62413;-73
2022/06/25 03:36:04;;;;;;;;;;;;;;;22.04;81.90;96778.63;587244;241;45851;-73
2022/06/25 03:38:33;;;;;;;;;;;;;;;22.03;81.91;96777.83;587205;241;47221;-73
2022/06/25 03:43:49;;;;;;;;;;;;;;;22.02;81.94;96762.87;587180;241;69393;-73
2022/06/25 03:46:17;;;;;;;;;;;;;;;22.02;81.72;96762.08;587134;241;65806;-73
2022/06/25 03:48:45;;;;;;;;;;;;;;;22.03;81.94;96769.02;587161;241;62821;-73
2022/06/25 03:51:14;;;;;;;;;;;;;;;22.03;81.95;96771.69;587207;241;47239;-73
2022/06/25 03:53:41;;;;;;;;;;;;;;;22.03;81.93;96769.02;587178;241;69255;-69
2022/06/25 03:56:09;;;;;;;;;;;;;;;22.03;81.97;96774.36;587179;241;65021;-69
2022/06/25 03:58:38;;;;;;;;;;;;;;;22.03;81.96;96771.69;587232;241;46436;-69
2022/06/25 04:01:06;;;;;;;;;;;;;;;22.02;81.96;96772.78;587162;241;66370;-69
2022/06/25 04:03:33;;;;;;;;;;;;;;;22.03;81.94;96772.48;587121;241;65094;-69
2022/06/25 04:06:09;;;;;;;;;;;;;;;22.02;81.92;96776.25;587206;241;45565;-69
2022/06/25 04:08:38;;;;;;;;;;;;;;;22.03;81.97;96769.02;587206;241;50675;-69
2022/06/25 04:11:08;;;;;;;;;;;;;;;22.02;81.92;96768.22;587221;241;49452;-69
2022/06/25 04:13:37;;;;;;;;;;;;;;;22.02;82.02;96762.87;587191;241;47302;-69
2022/06/25 04:16:05;;;;;;;;;;;;;;;22.03;81.99;96763.66;587128;241;68277;-69
2022/06/25 04:18:32;;;;;;;;;;;;;;;22.01;81.96;96761.25;587160;241;63749;-69
2022/06/25 04:21:00;;;;;;;;;;;;;;;22.02;82.00;96765.55;587223;241;65902;-69
2022/06/25 04:23:28;;;;;;;;;;;;;;;22.02;82.00;96765.55;587165;241;67977;-69
2022/06/25 04:25:55;;;;;;;;;;;;;;;22.02;81.96;96770.89;587177;241;64886;-69
2022/06/25 04:31:16;;;;;;;;;;;;;;;22.02;81.92;96765.55;587189;241;50922;-70
2022/06/25 04:33:44;;;;;;;;;;;;;;;22.03;81.96;96774.36;587157;241;64917;-70
2022/06/25 04:36:11;;;;;;;;;;;;;;;22.02;81.93;96772.78;587238;241;66224;-70
2022/06/25 04:38:43;;;;;;;;;;;;;;;22.02;81.92;96778.13;587200;241;45600;-70
2022/06/25 04:41:11;;;;;;;;;;;;;;;22.01;81.95;96763.92;587161;241;64885;-70
2022/06/25 04:43:39;;;;;;;;;;;;;;;22.03;81.93;96766.33;587169;241;68400;-70
2022/06/25 04:46:08;;;;;;;;;;;;;;;22.01;81.96;96769.28;587190;241;45506;-70
2022/06/25 04:48:39;;;;;;;;;;;;;;;22.01;81.96;96768.48;587304;241;43770;-70
2022/06/25 04:51:17;;;;;;;;;;;;;;;22.01;81.94;96771.16;587060;241;49390;-70
2022/06/25 04:53:57;;;;;;;;;;;;;;;22.01;81.98;96771.16;587095;241;68850;-74
2022/06/25 04:56:36;;;;;;;;;;;;;;;22.01;81.96;96771.16;587180;241;43872;-73
2022/06/25 04:59:04;;;;;;;;;;;;;;;22.01;81.97;96777.31;587150;241;66173;-73
2022/06/25 05:01:52;;;;;;;;;;;;;;;22.02;81.97;96783.48;587205;241;50349;-73
2022/06/25 05:04:22;;;;;;;;;;;;;;;22.01;81.98;96773.84;587217;241;42242;-73
2022/06/25 05:06:49;;;;;;;;;;;;;;;22.01;82.00;96777.31;587191;241;68402;-73
2022/06/25 05:09:17;;;;;;;;;;;;;;;22.00;81.98;96774.94;587160;241;66401;-73
2022/06/25 05:11:44;;;;;;;;;;;;;;;22.01;82.03;96781.87;587154;241;62808;-73
2022/06/25 05:14:13;;;;;;;;;;;;;;;22.00;82.05;96781.08;587148;241;68764;-73
2022/06/25 05:16:42;;;;;;;;;;;;;;;22.00;82.08;96780.28;587151;241;68365;-73
2022/06/25 05:19:12;;;;;;;;;;;;;;;22.00;82.09;96781.08;587140;241;62828;-73
2022/06/25 05:21:39;;;;;;;;;;;;;;;22.00;82.13;96783.75;587220;241;68513;-73
2022/06/25 05:24:09;;;;;;;;;;;;;;;22.00;82.13;96780.28;587107;241;66137;-73
2022/06/25 05:26:36;;;;;;;;;;;;;;;22.01;82.16;96789.89;587194;241;64900;-73
2022/06/25 05:29:04;;;;;;;;;;;;;;;22.00;82.13;96790.98;587128;241;68729;-73
2022/06/25 05:31:31;;;;;;;;;;;;;;;22.00;82.08;96785.63;587235;241;67176;-73
2022/06/25 05:33:59;;;;;;;;;;;;;;;22.00;82.09;96780.28;587203;241;65088;-73
2022/06/25 05:36:26;;;;;;;;;;;;;;;22.00;82.12;96775.72;587232;241;68638;-73
2022/06/25 05:38:54;;;;;;;;;;;;;;;22.00;82.17;96775.72;587262;241;68466;-73
2022/06/25 05:41:22;;;;;;;;;;;;;;;22.00;82.18;96769.58;587189;241;64779;-73
2022/06/25 05:43:49;;;;;;;;;;;;;;;22.00;82.20;96773.05;587245;241;66181;-73
2022/06/25 05:46:17;;;;;;;;;;;;;;;22.00;82.19;96777.61;587197;241;68405;-73
2022/06/25 05:48:44;;;;;;;;;;;;;;;22.00;82.22;96780.28;587219;241;64950;-73
2022/06/25 05:51:12;;;;;;;;;;;;;;;21.99;82.19;96779.49;587230;241;68570;-73
2022/06/25 05:53:40;;;;;;;;;;;;;;;21.99;82.19;96776.81;587179;241;68416;-72
2022/06/25 05:56:08;;;;;;;;;;;;;;;22.00;82.16;96778.41;587176;241;64986;-73
2022/06/25 05:58:35;;;;;;;;;;;;;;;21.99;82.19;96779.49;587241;241;68349;-72
2022/06/25 06:01:03;;;;;;;;;;;;;;;22.00;82.16;96785.63;587237;241;65933;-72
2022/06/25 06:03:30;;;;;;;;;;;;;;;21.99;82.17;96771.47;587265;241;62786;-73
2022/06/25 06:05:58;;;;;;;;;;;;;;;22.00;82.13;96780.28;587263;241;65766;-72
2022/06/25 06:08:25;;;;;;;;;;;;;;;21.99;82.19;96779.49;587206;241;68046;-72
2022/06/25 06:10:53;;;;;;;;;;;;;;;21.99;82.14;96779.49;587221;241;64877;-72
2022/06/25 06:13:20;;;;;;;;;;;;;;;21.99;82.17;96779.49;587241;241;68367;-72
2022/06/25 06:15:48;;;;;;;;;;;;;;;21.97;81.18;96780.85;587249;241;68011;-73
2022/06/25 06:18:15;;;;;;;;;;;;;;;21.99;81.35;96778.67;587236;241;64908;-72
2022/06/25 06:20:43;;;;;;;;;;;;;;;22.00;81.47;96774.94;587245;241;68215;-72
2022/06/25 06:23:10;;;;;;;;;;;;;;;22.01;81.75;96781.87;587197;241;68021;-72
2022/06/25 06:25:39;;;;;;;;;;;;;;;22.01;82.13;96773.84;587225;241;64903;-72
2022/06/25 06:28:08;;;;;;;;;;;;;;;22.01;82.06;96776.52;587214;241;68346;-74
2022/06/25 06:30:35;;;;;;;;;;;;;;;22.02;82.08;96778.13;587215;241;68435;-73
2022/06/25 06:33:03;;;;;;;;;;;;;;;22.02;82.08;96775.45;587206;241;64886;-73
2022/06/25 06:35:31;;;;;;;;;;;;;;;22.02;82.14;96778.92;587173;241;68440;-73
2022/06/25 06:37:59;;;;;;;;;;;;;;;22.04;82.15;96773.27;587218;241;66219;-73
2022/06/25 06:40:26;;;;;;;;;;;;;;;22.04;82.18;96775.95;587224;241;62805;-73
2022/06/25 06:42:55;;;;;;;;;;;;;;;22.04;82.16;96778.63;587232;241;66230;-73
2022/06/25 06:45:23;;;;;;;;;;;;;;;22.04;82.14;96781.30;587208;241;68390;-74
2022/06/25 06:47:51;;;;;;;;;;;;;;;22.04;82.10;96775.95;587219;241;64918;-73
2022/06/25 06:50:18;;;;;;;;;;;;;;;22.04;82.10;96767.92;587200;241;69276;-73
2022/06/25 06:52:46;;;;;;;;;;;;;;;22.04;82.08;96763.36;587172;241;68006;-73
2022/06/25 06:55:13;;;;;;;;;;;;;;;22.05;82.08;96766.86;587223;241;64889;-73
2022/06/25 06:57:42;;;;;;;;;;;;;;;22.05;82.07;96767.65;587242;241;68460;-74
2022/06/25 07:00:10;;;;;;;;;;;;;;;22.06;82.07;96768.44;587177;241;68556;-73
2022/06/25 07:02:37;;;;;;;;;;;;;;;22.06;82.06;96765.77;587181;241;62834;-73
2022/06/25 07:05:05;;;;;;;;;;;;;;;22.05;82.01;96762.30;587206;241;68583;-73
2022/06/25 07:07:32;;;;;;;;;;;;;;;22.06;82.01;96755.85;587207;241;68516;-73
2022/06/25 07:10:00;;;;;;;;;;;;;;;22.06;82.01;96750.50;587222;241;64868;-73
2022/06/25 07:12:27;;;;;;;;;;;;;;;22.06;82.08;96752.38;587185;241;68367;-73
2022/06/25 07:14:55;;;;;;;;;;;;;;;22.07;82.08;96759.32;587182;241;66562;-73
2022/06/25 07:17:22;;;;;;;;;;;;;;;22.07;82.00;96762.00;587198;241;62772;-73
2022/06/25 07:19:52;;;;;;;;;;;;;;;22.08;82.02;96760.94;587188;241;66231;-73
2022/06/25 07:22:19;;;;;;;;;;;;;;;22.07;82.02;96754.80;587192;241;69494;-73
2022/06/25 07:24:47;;;;;;;;;;;;;;;22.08;82.00;96759.05;587159;241;64908;-73
2022/06/25 07:27:14;;;;;;;;;;;;;;;22.08;81.97;96766.28;587189;241;68869;-73
2022/06/25 07:29:42;;;;;;;;;;;;;;;22.08;81.93;96766.28;587170;241;68677;-73
2022/06/25 07:32:10;;;;;;;;;;;;;;;22.08;81.97;96772.43;587191;241;64826;-73
2022/06/25 07:34:38;;;;;;;;;;;;;;;22.09;81.96;96767.88;587173;241;66444;-73
2022/06/25 07:37:07;;;;;;;;;;;;;;;22.09;81.92;96770.55;587197;241;66588;-73
2022/06/25 07:39:34;;;;;;;;;;;;;;;22.09;81.92;96768.66;587194;241;62755;-73
2022/06/25 07:42:02;;;;;;;;;;;;;;;22.08;81.88;96759.05;587216;241;66411;-73
2022/06/25 07:44:31;;;;;;;;;;;;;;;22.09;81.92;96762.52;587165;241;66490;-73
2022/06/25 07:46:58;;;;;;;;;;;;;;;22.10;81.86;96761.45;587170;241;65078;-72
2022/06/25 07:49:26;;;;;;;;;;;;;;;22.09;81.86;96763.31;587184;241;66540;-72
2022/06/25 07:51:56;;;;;;;;;;;;;;;22.10;81.85;96767.60;587189;241;68389;-73
2022/06/25 07:54:25;;;;;;;;;;;;;;;22.10;81.85;96764.13;587152;241;62866;-73
2022/06/25 07:56:52;;;;;;;;;;;;;;;22.10;81.85;96766.81;587189;241;68735;-73
2022/06/25 07:59:20;;;;;;;;;;;;;;;22.09;81.84;96763.31;587177;241;68576;-73
2022/06/25 08:01:48;;;;;;;;;;;;;;;22.10;81.83;96758.78;587214;241;65046;-72
2022/06/25 08:04:15;;;;;;;;;;;;;;;22.11;81.82;96763.04;587180;241;68533;-75
2022/06/25 08:06:44;;;;;;;;;;;;;;;22.10;81.79;96758.78;587225;241;66248;-75
2022/06/25 08:09:11;;;;;;;;;;;;;;;22.10;81.80;96759.57;587208;241;65080;-72
2022/06/25 08:11:39;;;;;;;;;;;;;;;22.11;81.77;96763.04;587175;241;68809;-72
2022/06/25 08:14:06;;;;;;;;;;;;;;;22.10;81.75;96764.92;587158;241;68849;-72
2022/06/25 08:16:34;;;;;;;;;;;;;;;22.11;81.74;96752.33;587207;241;66008;-73
2022/06/25 08:19:01;;;;;;;;;;;;;;;22.10;81.75;96754.22;587175;241;68760;-72
2022/06/25 08:21:29;;;;;;;;;;;;;;;22.11;81.75;96760.36;587184;241;68622;-72
2022/06/25 08:23:56;;;;;;;;;;;;;;;22.12;81.77;96764.63;587161;241;64898;-72
2022/06/25 08:26:24;;;;;;;;;;;;;;;22.11;81.74;96765.72;587178;241;68690;-73
2022/06/25 08:28:52;;;;;;;;;;;;;;;22.11;81.74;96763.04;587195;241;68519;-72
2022/06/25 08:31:20;;;;;;;;;;;;;;;22.11;81.75;96763.04;587221;241;64860;-73
2022/06/25 08:33:47;;;;;;;;;;;;;;;22.12;81.78;96761.95;587159;241;66212;-72
2022/06/25 08:36:15;;;;;;;;;;;;;;;22.11;81.77;96755.01;587203;241;66552;-72
2022/06/25 08:38:42;;;;;;;;;;;;;;;22.10;81.73;96754.22;587129;241;62850;-72
2022/06/25 08:41:10;;;;;;;;;;;;;;;22.12;81.70;96753.92;587201;241;68818;-73
2022/06/25 08:43:37;;;;;;;;;;;;;;;22.11;81.74;96761.16;587202;241;68502;-72
2022/06/25 08:46:05;;;;;;;;;;;;;;;22.11;81.73;96760.36;587167;241;64917;-72
2022/06/25 08:48:34;;;;;;;;;;;;;;;22.12;81.76;96765.41;587209;241;68600;-72
2022/06/25 08:51:04;;;;;;;;;;;;;;;22.12;81.73;96761.95;587154;241;68763;-72
2022/06/25 08:53:33;;;;;;;;;;;;;;;22.11;81.68;96761.16;586646;241;65135;-73
2022/06/25 08:56:01;;;;;;;;;;;;;;;22.13;81.70;96766.23;585932;242;68731;-73
2022/06/25 08:58:29;;;;;;;;;;;;;;;22.11;81.72;96750.45;585910;242;66716;-72
2022/06/25 09:00:56;;;;;;;;;;;;;;;22.13;81.71;96755.53;585898;242;62813;-72
2022/06/25 09:03:25;;;;;;;;;;;;;;;22.12;81.68;96752.03;585896;242;66453;-73
2022/06/25 09:05:54;;;;;;;;;;;;;;;22.12;81.65;96751.23;585895;242;68649;-73
2022/06/25 09:08:22;;;;;;;;;;;;;;;22.12;81.68;96749.36;585905;242;62896;-72
2022/06/25 09:10:51;;;;;;;;;;;;;;;22.12;81.68;96754.71;585921;242;68641;-73
2022/06/25 09:13:21;;;;;;;;;;;;;;;22.12;81.70;96752.03;585852;240;67491;-72
2022/06/25 09:15:50;;;;;;;;;;;;;;;22.12;81.66;96746.68;585923;240;46360;-73
2022/06/25 09:18:20;;;;;;;;;;;;;;;22.13;81.69;96750.18;585855;240;48471;-75
2022/06/25 09:21:01;;;;;;;;;;;;;;;22.13;81.69;96750.97;585926;242;68369;-73
2022/06/25 09:23:30;;;;;;;;;;;;;;;22.13;81.66;96748.30;585928;242;64764;-73
2022/06/25 09:26:01;;;;;;;;;;;;;;;22.13;81.65;96750.18;585889;242;66462;-73
2022/06/25 09:28:30;;;;;;;;;;;;;;;22.12;81.63;96744.00;585842;242;68891;-73
2022/06/25 09:30:57;;;;;;;;;;;;;;;22.13;81.67;96755.53;585905;242;63044;-73
2022/06/25 09:33:25;;;;;;;;;;;;;;;22.13;81.61;96747.50;585909;242;66440;-73
2022/06/25 09:35:54;;;;;;;;;;;;;;;22.13;81.60;96758.20;585884;242;66479;-73
2022/06/25 09:38:24;;;;;;;;;;;;;;;22.13;81.59;96755.53;585903;242;64911;-73
2022/06/25 09:40:53;;;;;;;;;;;;;;;22.12;81.63;96762.73;585917;242;66501;-75
2022/06/25 09:43:22;;;;;;;;;;;;;;;22.13;81.60;96763.56;585877;242;68636;-75
2022/06/25 09:45:55;;;;;;;;;;;;;;;22.13;81.59;96766.23;585934;242;65352;-75
2022/06/25 09:48:27;;;;;;;;;;;;;;;22.13;81.58;96763.56;585915;240;66123;-73
2022/06/25 09:51:11;;;;;;;;;;;;;;;22.13;81.63;96759.00;585896;242;68571;-73
2022/06/25 09:53:52;;;;;;;;;;;;;;;22.14;81.63;96759.79;586376;241;62744;-73
2022/06/25 09:56:21;;;;;;;;;;;;;;;22.13;81.59;96761.67;587213;241;67132;-73
2022/06/25 09:58:49;;;;;;;;;;;;;;;22.13;81.63;96761.67;587178;241;68908;-69
2022/06/25 10:01:18;;;;;;;;;;;;;;;22.13;81.65;96753.64;587191;241;62783;-69
2022/06/25 10:03:46;;;;;;;;;;;;;;;22.13;81.60;96752.86;587211;241;68889;-69
2022/06/25 10:06:14;;;;;;;;;;;;;;;22.14;81.63;96762.47;587175;241;68579;-69
2022/06/25 10:08:44;;;;;;;;;;;;;;;22.14;81.59;96765.14;587244;241;64894;-69
2022/06/25 10:11:12;;;;;;;;;;;;;;;22.14;81.59;96762.47;587076;241;66163;-71
2022/06/25 10:13:41;;;;;;;;;;;;;;;22.14;81.65;96759.79;587230;241;68343;-71
2022/06/25 10:16:09;;;;;;;;;;;;;;;22.13;81.62;96750.97;587218;241;62723;-69
2022/06/25 10:18:38;;;;;;;;;;;;;;;22.14;81.59;96757.91;587189;241;66226;-69
2022/06/25 10:21:06;;;;;;;;;;;;;;;22.15;81.58;96756.02;587206;241;68454;-69
2022/06/25 10:23:33;;;;;;;;;;;;;;;22.14;81.59;96749.88;587226;241;64897;-69
2022/06/25 10:26:01;;;;;;;;;;;;;;;22.14;81.67;96757.11;587246;241;68604;-69
2022/06/25 10:28:31;;;;;;;;;;;;;;;22.14;81.61;96754.44;587204;241;68380;-69
2022/06/25 10:30:59;;;;;;;;;;;;;;;22.15;81.57;96750.67;587204;241;65019;-69
2022/06/25 10:33:28;;;;;;;;;;;;;;;22.14;81.53;96760.58;587216;241;68327;-69
2022/06/25 10:36:04;;;;;;;;;;;;;;;22.14;81.51;96752.55;587180;241;68325;-69
2022/06/25 10:38:30;;;;;;;;;;;;;;;22.15;81.40;96758.70;587170;241;63748;-69
2022/06/25 10:40:59;;;;;;;;;;;;;;;22.15;81.38;96756.02;587205;241;68653;-69
2022/06/25 10:43:37;;;;;;;;;;;;;;;22.15;81.40;96761.37;587117;241;66834;-69
2022/06/25 10:46:24;;;;;;;;;;;;;;;22.14;81.39;96755.23;587212;241;62827;-70
2022/06/25 10:48:53;;;;;;;;;;;;;;;22.14;81.40;96754.44;587212;241;68884;-70
2022/06/25 10:51:28;;;;;;;;;;;;;;;22.15;81.40;96756.02;587195;241;68496;-70
2022/06/25 10:53:56;;;;;;;;;;;;;;;22.14;81.39;96757.11;586407;241;65098;-69
2022/06/25 10:56:24;;;;;;;;;;;;;;;22.14;81.41;96759.79;585913;242;68738;-69
2022/06/25 10:58:52;;;;;;;;;;;;;;;22.15;81.41;96750.67;585874;242;66370;-69
2022/06/25 11:01:21;;;;;;;;;;;;;;;22.14;81.39;96755.23;585912;242;64936;-69
2022/06/25 11:03:50;;;;;;;;;;;;;;;22.15;81.37;96758.70;585911;242;69303;-69
2022/06/25 11:06:26;;;;;;;;;;;;;;;22.15;81.36;96756.02;585877;242;68605;-69
2022/06/25 11:08:54;;;;;;;;;;;;;;;22.15;81.31;96761.37;585863;242;65087;-70
2022/06/25 11:11:26;;;;;;;;;;;;;;;22.15;81.31;96766.73;585895;242;66622;-70
2022/06/25 11:13:53;;;;;;;;;;;;;;;22.16;81.28;96762.98;585899;242;66568;-70
2022/06/25 11:16:21;;;;;;;;;;;;;;;22.15;81.31;96756.02;585894;242;62846;-70
2022/06/25 11:18:50;;;;;;;;;;;;;;;22.15;81.33;96770.22;585874;242;68631;-70
2022/06/25 11:21:28;;;;;;;;;;;;;;;22.16;81.32;96760.31;585871;242;66621;-70
2022/06/25 11:24:12;;;;;;;;;;;;;;;22.15;81.27;96756.84;585847;242;62772;-71
2022/06/25 11:29:27;;;;;;;;;;;;;;;22.15;81.24;96740.78;585819;242;68626;-70
2022/06/25 11:31:55;;;;;;;;;;;;;;;22.16;81.32;96744.25;585854;242;64894;-69
2022/06/25 11:34:24;;;;;;;;;;;;;;;22.16;81.36;96749.61;585868;242;68835;-69
2022/06/25 11:36:56;;;;;;;;;;;;;;;22.15;81.35;96743.46;585824;242;66290;-69
2022/06/25 11:39:23;;;;;;;;;;;;;;;22.15;81.37;96742.64;585849;242;65174;-69
2022/06/25 11:41:51;;;;;;;;;;;;;;;22.16;81.36;96736.23;585826;242;69571;-70
2022/06/25 11:44:19;;;;;;;;;;;;;;;22.15;81.43;96739.96;585832;242;66399;-69
2022/06/25 11:46:48;;;;;;;;;;;;;;;22.16;81.42;96737.02;585915;242;65092;-73
2022/06/25 11:49:16;;;;;;;;;;;;;;;22.16;81.39;96738.90;585745;242;68755;-73
2022/06/25 11:51:45;;;;;;;;;;;;;;;22.16;81.33;96739.69;585844;242;68410;-73
2022/06/25 11:54:13;;;;;;;;;;;;;;;22.16;81.33;96741.58;588919;240;65144;-73
2022/06/25 11:56:48;;;;;;;;;;;;;;;22.17;81.34;96743.16;590770;240;66595;-73
2022/06/25 11:59:17;;;;;;;;;;;;;;;22.16;81.36;96737.02;590482;240;68641;-71
2022/06/25 12:01:46;;;;;;;;;;;;;;;22.17;81.34;96741.27;590622;240;65396;-71
2022/06/25 12:04:14;;;;;;;;;;;;;;;22.16;81.38;96742.38;590788;240;68777;-71
2022/06/25 12:06:41;;;;;;;;;;;;;;;22.17;81.31;96737.80;590764;240;68472;-71
2022/06/25 12:09:09;;;;;;;;;;;;;;;22.17;81.34;96737.80;590768;240;65229;-71
2022/06/25 12:11:36;;;;;;;;;;;;;;;22.16;81.36;96720.17;590790;240;68987;-71
2022/06/25 12:14:05;;;;;;;;;;;;;;;22.16;81.33;96720.95;590800;240;68667;-71
2022/06/25 12:16:44;;;;;;;;;;;;;;;22.18;81.31;96715.36;590786;240;62735;-71
2022/06/25 12:19:12;;;;;;;;;;;;;;;22.16;81.35;96723.63;590771;240;68449;-71
2022/06/25 12:21:39;;;;;;;;;;;;;;;22.17;81.35;96711.05;590756;240;68636;-71
2022/06/25 12:24:08;;;;;;;;;;;;;;;22.17;81.28;96708.37;590753;240;62734;-71
2022/06/25 12:26:36;;;;;;;;;;;;;;;22.18;81.34;96712.69;590780;240;66859;-71
2022/06/25 12:29:07;;;;;;;;;;;;;;;22.17;81.29;96719.07;590807;240;66500;-71
2022/06/25 12:31:35;;;;;;;;;;;;;;;22.17;81.31;96705.69;590795;240;62771;-71
2022/06/25 12:34:03;;;;;;;;;;;;;;;22.17;81.34;96705.69;590743;240;66554;-71
2022/06/25 12:36:32;;;;;;;;;;;;;;;22.17;81.33;96703.80;590765;240;66560;-69
2022/06/25 12:38:59;;;;;;;;;;;;;;;22.17;81.30;96703.80;590736;240;62830;-69
2022/06/25 12:41:46;;;;;;;;;;;;;;;22.18;81.32;96704.66;590826;240;66583;-70
2022/06/25 12:44:14;;;;;;;;;;;;;;;22.17;81.26;96709.16;590755;240;68783;-69
2022/06/25 12:46:42;;;;;;;;;;;;;;;22.17;81.26;96727.89;590791;240;64994;-69
2022/06/25 12:49:11;;;;;;;;;;;;;;;22.18;81.24;96723.39;590732;240;68751;-69
2022/06/25 12:51:40;;;;;;;;;;;;;;;22.17;81.19;96722.54;590760;240;68840;-69
2022/06/25 12:54:07;;;;;;;;;;;;;;;22.17;81.24;96716.39;588425;240;64995;-69
2022/06/25 12:56:35;;;;;;;;;;;;;;;22.17;81.20;96717.19;587190;241;68662;-69
2022/06/25 12:59:04;;;;;;;;;;;;;;;22.17;81.22;96716.39;587052;241;68496;-69
2022/06/25 13:01:33;;;;;;;;;;;;;;;22.18;81.24;96704.66;587146;241;64879;-69
2022/06/25 13:04:00;;;;;;;;;;;;;;;22.18;81.25;96710.01;587140;241;68724;-69
2022/06/25 13:06:28;;;;;;;;;;;;;;;22.19;81.23;96708.13;587149;241;68610;-69
2022/06/25 13:08:55;;;;;;;;;;;;;;;22.19;81.20;96702.77;587182;241;64885;-69
2022/06/25 13:11:23;;;;;;;;;;;;;;;22.18;81.20;96696.62;587121;241;68702;-73
2022/06/25 13:13:51;;;;;;;;;;;;;;;22.19;81.20;96700.09;587100;241;68818;-73
2022/06/25 13:16:19;;;;;;;;;;;;;;;22.17;81.19;96706.48;587119;241;62783;-73